createdAt,value
2023-03-30T00:00:48.300Z,18.50
2023-03-30T00:06:05.357Z,18.25
2023-03-30T00:11:13.402Z,15.13
2023-03-30T00:16:18.029Z,10.75
2023-03-30T00:21:22.231Z,9.68
2023-03-30T00:26:28.536Z,9.27
2023-03-30T00:31:32.716Z,9.00
2023-03-30T00:36:37.319Z,8.68
2023-03-30T00:41:43.282Z,9.60
2023-03-30T00:46:47.565Z,9.07
2023-03-30T00:51:51.832Z,8.48
2023-03-30T00:56:58.401Z,8.87
2023-03-30T01:02:02.644Z,9.55
2023-03-30T01:07:12.482Z,7.80
2023-03-30T01:12:18.140Z,9.32
2023-03-30T01:17:32.374Z,9.68
2023-03-30T01:22:52.846Z,10.68
2023-03-30T01:28:26.831Z,8.75
2023-03-30T01:33:59.211Z,9.15
2023-03-30T01:39:21.750Z,6.80
2023-03-30T01:44:34.282Z,8.93
2023-03-30T01:49:45.276Z,7.35
2023-03-30T01:54:58.024Z,6.57
2023-03-30T02:00:13.197Z,6.93
2023-03-30T02:05:21.063Z,6.50
2023-03-30T02:10:30.522Z,5.15
2023-03-30T02:15:37.629Z,6.07
2023-03-30T02:20:42.769Z,12.45
2023-03-30T02:25:48.486Z,10.75
2023-03-30T02:30:54.983Z,17.52
2023-03-30T02:36:18.925Z,4.97
2023-03-30T02:41:41.640Z,9.00
2023-03-30T02:47:01.701Z,8.63
2023-03-30T02:52:14.807Z,7.05
2023-03-30T02:57:37.767Z,5.50
2023-03-30T03:03:21.347Z,4.70
2023-03-30T03:08:34.150Z,5.07
2023-03-30T03:13:41.110Z,4.40
2023-03-30T03:18:46.201Z,4.60
2023-03-30T03:23:50.620Z,5.13
2023-03-30T03:28:59.955Z,5.22
2023-03-30T03:34:04.376Z,5.43
2023-03-30T03:39:37.540Z,5.13
2023-03-30T03:44:47.469Z,5.32
2023-03-30T03:49:51.856Z,5.45
2023-03-30T03:54:56.200Z,5.82
2023-03-30T04:00:01.962Z,5.25
2023-03-30T04:10:21.792Z,4.97
2023-03-30T04:15:54.848Z,6.80
2023-03-30T04:21:29.923Z,7.53
2023-03-30T04:26:53.832Z,7.32
2023-03-30T04:32:06.835Z,5.80
2023-03-30T04:37:31.568Z,5.65
2023-03-30T04:42:54.730Z,6.38
2023-03-30T04:48:24.084Z,5.13
2023-03-30T04:53:45.838Z,8.75
2023-03-30T04:59:05.675Z,6.53
2023-03-30T05:04:32.549Z,6.53
2023-03-30T05:09:58.219Z,7.68
2023-03-30T05:15:07.486Z,5.90
2023-03-30T05:20:42.347Z,8.02
2023-03-30T05:26:01.155Z,8.98
2023-03-30T05:31:23.535Z,6.95
2023-03-30T05:36:47.943Z,12.23
2023-03-30T05:42:11.767Z,10.30
2023-03-30T05:47:20.982Z,10.02
2023-03-30T05:52:35.304Z,7.80
2023-03-30T05:57:59.855Z,8.93
2023-03-30T06:03:21.306Z,7.25
2023-03-30T06:08:27.710Z,8.68
2023-03-30T06:13:36.395Z,12.00
2023-03-30T06:18:41.113Z,6.50
2023-03-30T06:23:51.304Z,7.85
2023-03-30T06:28:59.133Z,7.07
2023-03-30T06:34:03.695Z,7.97
2023-03-30T06:39:09.799Z,7.03
2023-03-30T06:49:32.574Z,9.52
2023-03-30T06:54:56.872Z,7.40
2023-03-30T07:05:16.883Z,6.72
2023-03-30T07:10:33.348Z,8.07
2023-03-30T07:15:40.535Z,6.40
2023-03-30T07:20:46.187Z,6.43
2023-03-30T07:25:54.833Z,7.72
2023-03-30T07:31:17.358Z,8.20
2023-03-30T07:36:21.851Z,6.50
2023-03-30T07:41:27.846Z,6.97
2023-03-30T07:46:35.136Z,5.95
2023-03-30T07:51:39.793Z,6.80
2023-03-30T07:56:54.675Z,7.65
2023-03-30T08:01:59.487Z,6.10
2023-03-30T08:07:17.942Z,6.47
2023-03-30T08:12:25.784Z,6.78
2023-03-30T08:17:30.394Z,5.85
2023-03-30T08:22:34.675Z,6.05
2023-03-30T08:27:40.418Z,6.03
2023-03-30T08:32:44.770Z,6.95
2023-03-30T08:37:49.160Z,6.50
2023-03-30T08:43:23.774Z,6.57
2023-03-30T08:48:30.475Z,6.78
2023-03-30T08:53:35.970Z,5.88
2023-03-30T08:58:52.252Z,5.88
2023-03-30T09:04:10.417Z,5.55
2023-03-30T09:09:17.728Z,5.90
2023-03-30T09:14:32.776Z,5.43
2023-03-30T09:19:47.330Z,5.38
2023-03-30T09:24:52.638Z,6.25
2023-03-30T09:30:06.684Z,5.60
2023-03-30T09:35:16.098Z,5.35
2023-03-30T09:40:32.595Z,5.53
2023-03-30T09:45:39.019Z,4.88
2023-03-30T09:50:45.183Z,5.45
2023-03-30T09:56:10.355Z,4.80
2023-03-30T10:01:18.693Z,4.50
2023-03-30T10:06:24.801Z,4.53
2023-03-30T10:11:38.101Z,4.50
2023-03-30T10:16:45.956Z,5.20
2023-03-30T10:21:55.261Z,5.00
2023-03-30T10:27:03.820Z,4.63
2023-03-30T10:32:15.773Z,4.63
2023-03-30T10:37:25.614Z,4.82
2023-03-30T10:42:33.482Z,4.50
2023-03-30T10:47:51.215Z,5.00
2023-03-30T10:53:06.930Z,4.57
2023-03-30T10:58:21.322Z,5.57
2023-03-30T11:03:29.847Z,5.50
2023-03-30T11:08:39.474Z,5.05
2023-03-30T11:13:49.525Z,5.32
2023-03-30T11:18:58.452Z,5.20
2023-03-30T11:24:08.399Z,4.80
2023-03-30T11:29:27.191Z,5.78
2023-03-30T11:34:42.534Z,6.07
2023-03-30T11:39:52.928Z,5.13
2023-03-30T11:44:57.344Z,6.13
2023-03-30T11:50:15.013Z,5.22
2023-03-30T11:55:42.472Z,6.20
2023-03-30T12:00:56.249Z,6.32
2023-03-30T12:06:13.491Z,6.35
2023-03-30T12:11:27.478Z,6.35
2023-03-30T12:16:39.585Z,5.57
2023-03-30T12:21:55.520Z,6.47
2023-03-30T12:32:23.854Z,5.97
2023-03-30T12:37:35.081Z,6.05
2023-03-30T12:42:46.521Z,5.95
2023-03-30T12:48:10.811Z,5.82
2023-03-30T12:53:35.185Z,6.20
2023-03-30T12:58:53.205Z,6.95
2023-03-30T13:04:00.886Z,7.03
2023-03-30T13:09:32.190Z,8.90
2023-03-30T13:14:47.264Z,8.10
2023-03-30T13:20:28.229Z,11.65
2023-03-30T13:25:46.624Z,7.32
2023-03-30T13:30:51.005Z,8.95
2023-03-30T13:36:06.400Z,7.38
2023-03-30T13:41:32.719Z,11.82
2023-03-30T13:46:44.585Z,9.18
2023-03-30T13:51:50.415Z,8.73
2023-03-30T13:57:00.842Z,9.80
2023-03-30T14:02:06.152Z,11.50
2023-03-30T14:07:17.404Z,8.30
2023-03-30T14:12:23.636Z,13.27
2023-03-30T14:17:28.102Z,8.88
2023-03-30T14:22:37.037Z,8.18
2023-03-30T14:27:42.777Z,8.57
2023-03-30T14:32:47.163Z,8.27
2023-03-30T14:37:52.273Z,11.77
2023-03-30T14:43:00.034Z,8.82
2023-03-30T14:48:04.360Z,9.15
2023-03-30T14:53:11.520Z,9.98
2023-03-30T14:58:17.693Z,8.93
2023-03-30T15:03:33.528Z,10.05
2023-03-30T15:08:40.710Z,9.95
2023-03-30T15:13:50.057Z,9.07
2023-03-30T15:19:04.742Z,8.65
2023-03-30T15:24:14.662Z,9.35
2023-03-30T15:29:21.129Z,9.32
2023-03-30T15:34:25.364Z,11.63
2023-03-30T15:39:34.879Z,9.77
2023-03-30T15:44:41.779Z,10.00
2023-03-30T15:49:50.688Z,8.90
2023-03-30T15:54:56.982Z,9.18
2023-03-30T16:00:06.678Z,9.73
2023-03-30T16:05:22.439Z,9.45
2023-03-30T16:10:28.913Z,10.07
2023-03-30T16:15:35.056Z,9.95
2023-03-30T16:20:39.481Z,8.95
2023-03-30T16:25:45.030Z,9.25
2023-03-30T16:30:53.759Z,10.55
2023-03-30T16:35:58.178Z,9.25
2023-03-30T16:41:03.159Z,9.48
2023-03-30T16:46:11.159Z,8.27
2023-03-30T16:51:16.547Z,10.18
2023-03-30T16:56:21.795Z,10.00
2023-03-30T17:01:28.567Z,10.23
2023-03-30T17:06:32.809Z,10.25
2023-03-30T17:11:37.023Z,10.40
2023-03-30T17:16:43.011Z,10.52
2023-03-30T17:26:51.293Z,11.25
2023-03-30T17:31:56.843Z,10.13
2023-03-30T17:37:01.263Z,9.68
2023-03-30T17:42:06.087Z,12.07
2023-03-30T17:47:11.786Z,11.13
2023-03-30T17:52:16.889Z,10.60
2023-03-30T17:57:21.128Z,9.90
2023-03-30T18:02:26.913Z,8.77
2023-03-30T18:07:33.609Z,9.38
2023-03-30T18:12:38.058Z,10.07
2023-03-30T18:17:44.166Z,13.45
2023-03-30T18:27:52.730Z,7.22
2023-03-30T18:32:59.835Z,8.23
2023-03-30T18:38:05.107Z,8.38
2023-03-30T18:43:09.724Z,8.00
2023-03-30T18:48:16.959Z,7.53
2023-03-30T18:53:22.999Z,9.00
2023-03-30T18:58:28.992Z,9.25
2023-03-30T19:03:34.860Z,8.43
2023-03-30T19:13:42.871Z,7.40
2023-03-30T19:18:49.569Z,7.70
2023-03-30T19:23:55.191Z,8.48
2023-03-30T19:28:59.380Z,7.78
2023-03-30T19:34:04.942Z,7.25
2023-03-30T19:39:09.558Z,7.05
2023-03-30T19:44:13.902Z,10.07
2023-03-30T19:49:19.468Z,10.70
2023-03-30T19:54:23.812Z,7.18
2023-03-30T19:59:28.822Z,8.48
2023-03-30T20:04:34.394Z,7.88
2023-03-30T20:09:38.871Z,7.85
2023-03-30T20:14:43.211Z,8.07
2023-03-30T20:19:48.856Z,9.00
2023-03-30T20:24:53.144Z,8.77
2023-03-30T20:29:57.464Z,10.77
2023-03-30T20:35:03.396Z,11.73
2023-03-30T20:45:15.071Z,12.90
2023-03-30T20:50:20.894Z,17.15
2023-03-30T20:55:25.011Z,17.80
2023-03-30T21:00:29.166Z,15.13
2023-03-30T21:05:34.853Z,12.98
2023-03-30T21:10:42.527Z,11.77
2023-03-30T21:15:46.754Z,11.77
2023-03-30T21:20:52.372Z,10.80
2023-03-30T21:25:58.438Z,15.88
2023-03-30T21:31:07.746Z,14.80
2023-03-30T21:36:13.828Z,12.27
2023-03-30T21:46:24.215Z,11.68
2023-03-30T21:51:31.731Z,16.13
2023-03-30T21:56:36.240Z,13.98
2023-03-30T22:01:40.563Z,11.60
2023-03-30T22:06:46.151Z,16.13
2023-03-30T22:11:52.595Z,11.38
2023-03-30T22:16:58.074Z,11.98
2023-03-30T22:22:04.853Z,11.25
2023-03-30T22:27:09.245Z,17.17
2023-03-30T22:32:14.080Z,10.05
2023-03-30T22:37:19.732Z,17.33
2023-03-30T22:42:24.113Z,15.65
2023-03-30T22:47:28.425Z,16.77
2023-03-30T22:52:34.137Z,11.85
2023-03-30T22:57:38.684Z,21.17
2023-03-30T23:02:42.906Z,21.55
2023-03-30T23:07:49.403Z,13.93
2023-03-30T23:12:53.759Z,12.25
2023-03-30T23:17:57.991Z,15.90
2023-03-30T23:23:03.655Z,13.45
2023-03-30T23:28:07.869Z,17.15
2023-03-30T23:33:13.489Z,8.98
2023-03-30T23:38:19.201Z,9.40
2023-03-30T23:43:23.845Z,8.30
2023-03-30T23:48:28.245Z,7.78
2023-03-30T23:53:34.246Z,13.77
2023-03-30T23:58:38.372Z,12.73
